EDDP/LEJ METAR and TAF weather

Enter ICAO airport designator
Station Type Date Time Source
EDDP METAR 2019/08/19 22:50 UTC NOAA

EDDP 192250Z 09005KT CAVOK 17/09 Q1020 NOSIG


Station Type Date Time Source
EDDP Decoded METAR 2019/08/19 22:50 UTC NOAA

Leipzig-Schkeuditz, Germany (EDDP) 51-25N 012-14E 149M
Aug 19, 2019 - 06:50 PM EDT / 2019.08.19 2250 UTC
Wind: from the E (090 degrees) at 6 MPH (5 KT):0
Visibility: greater than 7 mile(s):0
Temperature: 62 F (17 C)
Dew Point: 48 F (9 C)
Relative Humidity: 59%
Pressure (altimeter): 30.12 in. Hg (1020 hPa)
ob: EDDP 192250Z 09005KT CAVOK 17/09 Q1020 NOSIG
cycle: 23

Station Type Date Time Source
EDDP TAF 2019/08/19 18:27 UTC NOAA

TAF EDDP 191700Z 1918/2018 27008KT CAVOK
BECMG 1919/1922 VRB03KT
BECMG 2005/2008 29005KT

Example: see airport list